createdAt,value
2022-11-13T00:00:02.161Z,1.90
2022-11-13T00:02:49.341Z,2.08
2022-11-13T00:05:37.489Z,2.15
2022-11-13T00:08:25.799Z,2.42
2022-11-13T00:11:15.925Z,2.17
2022-11-13T00:14:02.723Z,2.10
2022-11-13T00:16:49.642Z,1.80
2022-11-13T00:19:36.978Z,2.00
2022-11-13T00:22:23.750Z,1.90
2022-11-13T00:25:12.128Z,1.95
2022-11-13T00:27:58.677Z,2.03
2022-11-13T00:30:45.665Z,1.85
2022-11-13T00:34:02.034Z,1.98
2022-11-13T00:36:39.392Z,1.75
2022-11-13T00:39:26.293Z,1.60
2022-11-13T00:42:14.530Z,1.70
2022-11-13T00:45:01.693Z,1.90
2022-11-13T00:47:48.699Z,2.10
2022-11-13T00:50:35.552Z,2.10
2022-11-13T00:53:22.851Z,1.77
2022-11-13T00:56:09.802Z,2.22
2022-11-13T00:58:58.100Z,2.15
2022-11-13T01:01:45.097Z,2.20
2022-11-13T01:04:32.211Z,2.00
2022-11-13T01:07:19.204Z,1.98
2022-11-13T01:10:06.901Z,2.15
2022-11-13T01:12:53.992Z,1.85
2022-11-13T01:15:43.528Z,1.92
2022-11-13T01:18:30.709Z,1.77
2022-11-13T01:21:19.970Z,1.90
2022-11-13T01:24:07.408Z,2.25
2022-11-13T01:26:54.354Z,1.80
2022-11-13T01:29:41.347Z,1.60
2022-11-13T01:32:29.727Z,1.55
2022-11-13T01:35:16.779Z,1.90
2022-11-13T01:38:03.692Z,1.65
2022-11-13T01:40:50.737Z,1.50
2022-11-13T01:43:39.460Z,2.03
2022-11-13T01:46:28.945Z,1.88
2022-11-13T01:49:35.748Z,1.88
2022-11-13T01:52:26.354Z,1.65
2022-11-13T01:55:16.985Z,2.35
2022-11-13T01:58:05.882Z,2.10
2022-11-13T02:00:52.983Z,2.50
2022-11-13T02:03:40.110Z,2.47
2022-11-13T02:06:34.104Z,2.70
2022-11-13T02:09:23.477Z,2.80
2022-11-13T02:12:13.774Z,2.90
2022-11-13T02:15:01.859Z,2.50
2022-11-13T02:17:52.615Z,2.42
2022-11-13T02:20:48.074Z,2.00
2022-11-13T02:23:45.493Z,2.20
2022-11-13T02:26:34.775Z,2.00
2022-11-13T02:29:21.617Z,2.00
2022-11-13T02:32:08.473Z,1.92
2022-11-13T02:34:55.562Z,1.90
2022-11-13T02:37:42.555Z,1.90
2022-11-13T02:40:29.824Z,2.03
2022-11-13T02:43:18.054Z,1.80
2022-11-13T02:46:05.063Z,2.10
2022-11-13T02:48:51.849Z,1.95
2022-11-13T02:51:38.906Z,1.85
2022-11-13T02:54:25.919Z,1.60
2022-11-13T02:57:12.734Z,1.83
2022-11-13T03:00:01.244Z,1.85
2022-11-13T03:02:47.908Z,1.70
2022-11-13T03:05:34.945Z,1.90
2022-11-13T03:08:24.056Z,1.52
2022-11-13T03:11:12.356Z,1.90
2022-11-13T03:13:59.142Z,1.80
2022-11-13T03:16:47.318Z,1.63
2022-11-13T03:19:34.183Z,1.70
2022-11-13T03:22:21.221Z,1.67
2022-11-13T03:25:10.706Z,1.73
2022-11-13T03:27:57.738Z,1.60
2022-11-13T03:30:44.713Z,1.48
2022-11-13T03:33:33.819Z,1.50
2022-11-13T03:36:20.899Z,1.80
2022-11-13T03:39:07.955Z,1.50
2022-11-13T03:41:54.945Z,1.40
2022-11-13T03:44:41.869Z,1.40
2022-11-13T03:47:28.758Z,1.45
2022-11-13T03:50:17.358Z,1.42
2022-11-13T03:53:04.330Z,1.70
2022-11-13T03:55:51.186Z,1.58
2022-11-13T03:58:40.269Z,1.60
2022-11-13T04:01:27.269Z,1.75
2022-11-13T04:04:14.132Z,1.60
2022-11-13T04:07:02.918Z,1.48
2022-11-13T04:09:49.780Z,1.70
2022-11-13T04:12:36.392Z,1.35
2022-11-13T04:15:23.877Z,1.55
2022-11-13T04:18:10.742Z,1.70
2022-11-13T04:21:00.954Z,1.50
2022-11-13T04:23:49.155Z,1.40
2022-11-13T04:26:35.964Z,1.70
2022-11-13T04:29:22.898Z,1.40
2022-11-13T04:32:09.869Z,1.42
2022-11-13T04:34:56.858Z,1.70
2022-11-13T04:37:43.843Z,1.60
2022-11-13T04:40:32.268Z,1.58
2022-11-13T04:43:18.262Z,1.60
2022-11-13T04:46:05.013Z,1.50
2022-11-13T04:48:51.756Z,1.40
2022-11-13T04:51:39.887Z,1.58
2022-11-13T04:54:28.946Z,1.55
2022-11-13T04:57:17.314Z,1.50
2022-11-13T05:00:06.355Z,1.80
2022-11-13T05:02:53.305Z,1.33
2022-11-13T05:05:40.218Z,1.40
2022-11-13T05:08:27.322Z,1.50
2022-11-13T05:11:14.050Z,1.60
2022-11-13T05:14:03.786Z,1.30
2022-11-13T05:16:51.629Z,1.58
2022-11-13T05:19:38.541Z,1.60
2022-11-13T05:22:25.391Z,1.60
2022-11-13T05:25:12.431Z,1.50
2022-11-13T05:27:59.789Z,1.40
2022-11-13T05:30:48.499Z,1.52
2022-11-13T05:33:35.906Z,1.40
2022-11-13T05:36:23.616Z,1.40
2022-11-13T05:39:11.859Z,1.45
2022-11-13T05:41:58.795Z,1.35
2022-11-13T05:44:45.864Z,1.40
2022-11-13T05:47:34.968Z,1.45
2022-11-13T05:50:22.518Z,1.58
2022-11-13T05:53:09.533Z,1.40
2022-11-13T05:56:00.482Z,1.40
2022-11-13T05:58:48.173Z,1.30
2022-11-13T06:01:38.228Z,1.20
2022-11-13T06:04:28.503Z,1.38
2022-11-13T06:07:15.631Z,1.38
2022-11-13T06:10:02.569Z,1.40
2022-11-13T06:12:49.440Z,1.10
2022-11-13T06:15:36.332Z,1.35
2022-11-13T06:18:26.615Z,1.20
2022-11-13T06:21:16.732Z,1.40
2022-11-13T06:24:03.881Z,1.10
2022-11-13T06:26:50.612Z,1.30
2022-11-13T06:29:37.519Z,1.20
2022-11-13T06:32:24.716Z,1.33
2022-11-13T06:35:11.745Z,1.10
2022-11-13T06:38:00.029Z,1.30
2022-11-13T06:40:50.036Z,1.30
2022-11-13T06:43:37.110Z,1.20
2022-11-13T06:46:26.134Z,1.08
2022-11-13T06:49:13.158Z,1.20
2022-11-13T06:51:59.858Z,1.30
2022-11-13T06:54:48.147Z,1.15
2022-11-13T06:57:34.963Z,1.30
2022-11-13T07:00:22.260Z,1.20
2022-11-13T07:03:17.079Z,1.27
2022-11-13T07:06:05.634Z,1.30
2022-11-13T07:08:53.331Z,1.33
2022-11-13T07:11:41.676Z,1.20
2022-11-13T07:14:28.622Z,1.13
2022-11-13T07:17:15.673Z,1.20
2022-11-13T07:20:02.885Z,1.40
2022-11-13T07:22:49.819Z,1.20
2022-11-13T07:25:36.513Z,1.35
2022-11-13T07:28:25.048Z,1.20
2022-11-13T07:31:13.412Z,1.25
2022-11-13T07:34:00.055Z,1.35
2022-11-13T07:36:46.966Z,1.30
2022-11-13T07:39:34.037Z,1.25
2022-11-13T07:42:20.675Z,1.20
2022-11-13T07:45:09.868Z,1.33
2022-11-13T07:47:59.312Z,1.45
2022-11-13T07:50:46.242Z,1.30
2022-11-13T07:53:33.059Z,1.10
2022-11-13T07:56:22.979Z,1.20
2022-11-13T07:59:10.157Z,1.15
2022-11-13T08:01:58.450Z,1.10
2022-11-13T08:04:45.489Z,1.20
2022-11-13T08:07:32.536Z,1.15
2022-11-13T08:10:21.349Z,1.20
2022-11-13T08:13:10.343Z,1.10
2022-11-13T08:16:00.275Z,1.20
2022-11-13T08:18:48.872Z,1.60
2022-11-13T08:21:36.600Z,1.40
2022-11-13T08:24:23.564Z,1.60
2022-11-13T08:27:10.454Z,1.48
2022-11-13T08:29:57.493Z,1.40
2022-11-13T08:32:44.460Z,2.30
2022-11-13T08:35:32.719Z,2.10
2022-11-13T08:38:19.566Z,2.17
2022-11-13T08:41:09.683Z,1.83
2022-11-13T08:43:56.628Z,4.78
2022-11-13T08:46:43.500Z,2.60
2022-11-13T08:49:30.451Z,1.80
2022-11-13T08:52:18.654Z,1.70
2022-11-13T08:55:06.291Z,1.80
2022-11-13T08:57:55.212Z,1.50
2022-11-13T09:00:42.368Z,1.27
2022-11-13T09:03:29.365Z,1.60
2022-11-13T09:06:16.515Z,1.60
2022-11-13T09:09:06.051Z,1.60
2022-11-13T09:11:52.868Z,1.50
2022-11-13T09:14:39.908Z,1.70
2022-11-13T09:17:29.108Z,1.52
2022-11-13T09:20:19.069Z,1.42
2022-11-13T09:23:09.426Z,1.40
2022-11-13T09:25:57.814Z,1.60
2022-11-13T09:28:44.912Z,1.40
2022-11-13T09:31:31.693Z,1.40
2022-11-13T09:34:18.939Z,1.38
2022-11-13T09:37:08.092Z,1.40
2022-11-13T09:39:54.862Z,1.58
2022-11-13T09:42:43.301Z,1.40
2022-11-13T09:45:31.374Z,1.48
2022-11-13T09:48:26.752Z,1.60
2022-11-13T09:51:17.660Z,1.30
2022-11-13T09:54:07.335Z,1.40
2022-11-13T09:57:00.524Z,1.27
2022-11-13T09:59:53.384Z,1.27
2022-11-13T10:02:53.890Z,1.20
2022-11-13T10:05:48.701Z,1.10
2022-11-13T10:08:49.544Z,1.10
2022-11-13T10:11:40.508Z,1.30
2022-11-13T10:14:32.629Z,1.40
2022-11-13T10:17:27.826Z,1.30
2022-11-13T10:20:21.729Z,1.20
2022-11-13T10:23:15.548Z,1.20
2022-11-13T10:26:14.721Z,1.10
2022-11-13T10:29:11.540Z,1.10
2022-11-13T10:31:59.316Z,1.30
2022-11-13T10:34:55.566Z,1.00
2022-11-13T10:37:52.790Z,1.10
2022-11-13T10:40:41.307Z,1.20
2022-11-13T10:43:28.627Z,1.13
2022-11-13T10:46:21.613Z,1.30
2022-11-13T10:49:19.092Z,1.10
2022-11-13T10:52:19.792Z,1.10
2022-11-13T10:55:17.365Z,1.15
2022-11-13T10:58:11.794Z,1.10
2022-11-13T11:00:58.621Z,1.13
2022-11-13T11:03:52.322Z,1.10
2022-11-13T11:07:18.498Z,1.30
2022-11-13T11:09:52.405Z,1.40
2022-11-13T11:12:39.262Z,1.10
2022-11-13T11:15:30.946Z,1.30
2022-11-13T11:18:26.208Z,1.20
2022-11-13T11:21:17.281Z,1.30
2022-11-13T11:24:10.379Z,1.40
2022-11-13T11:27:02.613Z,1.27
2022-11-13T11:29:56.549Z,1.27
2022-11-13T11:32:48.292Z,1.85
2022-11-13T11:35:44.517Z,1.67
2022-11-13T11:38:37.017Z,1.60
2022-11-13T11:41:30.502Z,1.52
2022-11-13T11:44:25.629Z,1.40
2022-11-13T11:47:16.096Z,1.70
2022-11-13T11:50:03.826Z,1.70
2022-11-13T11:53:00.916Z,1.60
2022-11-13T11:56:14.718Z,1.50
2022-11-13T11:59:21.134Z,1.60
2022-11-13T12:02:52.358Z,1.50
2022-11-13T12:05:48.665Z,1.50
2022-11-13T12:08:46.070Z,1.38
2022-11-13T12:11:36.050Z,1.30
2022-11-13T12:14:35.493Z,1.30
2022-11-13T12:17:43.596Z,1.33
2022-11-13T12:20:39.856Z,1.50
2022-11-13T12:23:53.736Z,1.30
2022-11-13T12:26:47.498Z,1.30
2022-11-13T12:29:47.232Z,1.50
2022-11-13T12:32:47.720Z,1.30
2022-11-13T12:35:37.686Z,1.20
2022-11-13T12:38:35.230Z,1.10
2022-11-13T12:41:28.935Z,1.70
2022-11-13T12:44:24.680Z,1.50
2022-11-13T12:47:12.057Z,1.30
2022-11-13T12:50:04.780Z,1.30
2022-11-13T12:53:04.930Z,1.60
2022-11-13T12:56:00.247Z,1.35
2022-11-13T12:59:23.599Z,1.58
2022-11-13T13:02:23.290Z,1.33
2022-11-13T13:05:24.840Z,1.23
2022-11-13T13:08:47.633Z,1.30
2022-11-13T13:11:43.522Z,1.20
2022-11-13T13:14:43.542Z,1.20
2022-11-13T13:17:30.618Z,1.10
2022-11-13T13:20:33.487Z,1.20
2022-11-13T13:23:30.517Z,1.20
2022-11-13T13:26:20.327Z,1.25
2022-11-13T13:29:19.584Z,1.23
2022-11-13T13:32:20.807Z,1.30
2022-11-13T13:35:19.550Z,1.10
2022-11-13T13:38:18.460Z,1.10
2022-11-13T13:41:21.974Z,1.10
2022-11-13T13:44:29.039Z,1.23
2022-11-13T13:47:23.264Z,1.20
2022-11-13T13:50:17.390Z,1.20
2022-11-13T13:53:04.372Z,1.30
2022-11-13T13:55:54.162Z,1.40
2022-11-13T13:58:42.976Z,1.20
2022-11-13T14:01:32.261Z,1.50
2022-11-13T14:04:22.355Z,1.48
2022-11-13T14:07:21.377Z,1.50
2022-11-13T14:10:15.275Z,1.90
2022-11-13T14:13:01.957Z,1.80
2022-11-13T14:15:50.381Z,1.95
2022-11-13T14:18:37.403Z,1.85
2022-11-13T14:21:25.178Z,2.05
2022-11-13T14:24:17.458Z,2.10
2022-11-13T14:27:11.033Z,2.08
2022-11-13T14:30:00.783Z,2.08
2022-11-13T14:32:49.047Z,2.20
2022-11-13T14:35:36.679Z,2.00
2022-11-13T14:38:26.217Z,2.05
2022-11-13T14:41:23.110Z,2.13
2022-11-13T14:44:12.625Z,1.90
2022-11-13T14:47:01.878Z,1.88
2022-11-13T14:49:50.208Z,1.85
2022-11-13T14:52:37.272Z,1.83
2022-11-13T14:55:26.673Z,1.80
2022-11-13T14:58:14.962Z,1.77
2022-11-13T15:01:15.370Z,1.70
2022-11-13T15:04:02.315Z,1.80
2022-11-13T15:06:55.352Z,1.70
2022-11-13T15:09:42.349Z,2.08
2022-11-13T15:12:31.978Z,1.88
2022-11-13T15:15:21.430Z,1.95
2022-11-13T15:18:16.257Z,1.90
2022-11-13T15:21:03.122Z,2.13
2022-11-13T15:23:51.611Z,2.00
2022-11-13T15:26:38.632Z,2.00
2022-11-13T15:29:25.214Z,2.17
2022-11-13T15:32:13.397Z,1.90
2022-11-13T15:35:00.002Z,1.90
2022-11-13T15:37:47.066Z,2.20
2022-11-13T15:40:35.468Z,2.10
2022-11-13T15:43:22.414Z,2.20
2022-11-13T15:46:14.641Z,1.98
2022-11-13T15:49:01.191Z,2.00
2022-11-13T15:51:48.348Z,2.50
2022-11-13T15:54:38.570Z,2.50
2022-11-13T15:57:29.621Z,2.60
2022-11-13T16:00:18.830Z,2.47
2022-11-13T16:03:11.408Z,2.33
2022-11-13T16:05:59.216Z,2.10
2022-11-13T16:08:46.726Z,2.50
2022-11-13T16:11:35.350Z,2.30
2022-11-13T16:14:25.013Z,2.35
2022-11-13T16:17:14.374Z,2.40
2022-11-13T16:20:01.498Z,2.20
2022-11-13T16:22:48.327Z,2.40
2022-11-13T16:25:35.285Z,2.30
2022-11-13T16:28:22.200Z,2.58
2022-11-13T16:31:10.985Z,2.55
2022-11-13T16:33:57.733Z,2.35
2022-11-13T16:36:44.763Z,2.20
2022-11-13T16:39:31.743Z,2.20
2022-11-13T16:42:19.030Z,2.28
2022-11-13T16:45:06.388Z,2.53
2022-11-13T16:47:54.758Z,2.40
2022-11-13T16:50:42.736Z,2.00
2022-11-13T16:53:30.120Z,2.17
2022-11-13T16:56:24.900Z,2.10
2022-11-13T16:59:12.904Z,2.10
2022-11-13T17:02:00.060Z,2.10
2022-11-13T17:04:48.620Z,2.30
2022-11-13T17:07:35.597Z,1.88
2022-11-13T17:10:31.953Z,1.90
2022-11-13T17:13:19.594Z,1.98
2022-11-13T17:16:07.167Z,1.80
2022-11-13T17:18:55.297Z,1.80
2022-11-13T17:21:44.550Z,1.85
2022-11-13T17:24:31.496Z,2.10
2022-11-13T17:27:18.909Z,2.10
2022-11-13T17:30:06.852Z,1.80
2022-11-13T17:32:53.835Z,1.90
2022-11-13T17:35:40.867Z,2.08
2022-11-13T17:38:29.697Z,1.80
2022-11-13T17:41:17.628Z,1.80
2022-11-13T17:44:05.062Z,1.73
2022-11-13T17:46:52.051Z,1.90
2022-11-13T17:49:38.959Z,1.90
2022-11-13T17:52:28.320Z,1.75
2022-11-13T17:55:17.322Z,2.15
2022-11-13T17:58:04.435Z,2.10
2022-11-13T18:00:52.012Z,1.85
2022-11-13T18:03:38.865Z,1.70
2022-11-13T18:06:26.333Z,1.70
2022-11-13T18:09:13.191Z,1.50
2022-11-13T18:12:01.332Z,1.60
2022-11-13T18:14:52.559Z,1.90
2022-11-13T18:17:40.041Z,1.60
2022-11-13T18:20:27.799Z,1.60
2022-11-13T18:23:14.775Z,1.60
2022-11-13T18:26:08.160Z,1.50
2022-11-13T18:28:56.344Z,1.70
2022-11-13T18:31:43.119Z,1.65
2022-11-13T18:34:31.939Z,1.90
2022-11-13T18:37:18.985Z,1.92
2022-11-13T18:40:07.190Z,2.10
2022-11-13T18:42:54.251Z,1.90
2022-11-13T18:45:42.511Z,2.00
2022-11-13T18:48:31.630Z,1.58
2022-11-13T18:51:21.210Z,1.60
2022-11-13T18:54:11.573Z,1.95
2022-11-13T18:56:58.371Z,1.70
2022-11-13T18:59:45.317Z,2.08
2022-11-13T19:02:33.545Z,2.15
2022-11-13T19:05:20.513Z,2.20
2022-11-13T19:08:07.550Z,1.90
2022-11-13T19:10:54.426Z,1.90
2022-11-13T19:13:45.410Z,1.88
2022-11-13T19:16:36.311Z,1.90
2022-11-13T19:19:29.487Z,1.73
2022-11-13T19:22:16.595Z,1.85
2022-11-13T19:25:03.718Z,1.80
2022-11-13T19:27:55.782Z,1.85
2022-11-13T19:30:54.788Z,1.92
2022-11-13T19:33:44.261Z,1.83
2022-11-13T19:36:33.306Z,2.40
2022-11-13T19:39:20.621Z,2.03
2022-11-13T19:42:07.373Z,2.30
2022-11-13T19:44:54.346Z,2.40
2022-11-13T19:47:41.370Z,2.10
2022-11-13T19:50:28.312Z,2.35
2022-11-13T19:53:16.701Z,2.33
2022-11-13T19:56:04.087Z,2.30
2022-11-13T19:58:52.381Z,2.20
2022-11-13T20:01:42.714Z,2.47
2022-11-13T20:04:29.997Z,2.15
2022-11-13T20:07:16.738Z,2.13
2022-11-13T20:10:05.735Z,2.28
2022-11-13T20:12:52.459Z,2.47
2022-11-13T20:15:42.084Z,2.65
2022-11-13T20:18:29.445Z,2.20
2022-11-13T20:21:24.403Z,2.50
2022-11-13T20:24:13.853Z,2.38
2022-11-13T20:27:02.331Z,2.45
2022-11-13T20:29:48.904Z,2.75
2022-11-13T20:32:37.774Z,2.50
2022-11-13T20:35:24.404Z,2.50
2022-11-13T20:38:11.663Z,2.30
2022-11-13T20:40:58.404Z,2.47
2022-11-13T20:43:46.861Z,2.75
2022-11-13T20:46:36.819Z,2.40
2022-11-13T20:49:24.015Z,2.53
2022-11-13T20:52:10.808Z,2.75
2022-11-13T20:54:57.801Z,2.75
2022-11-13T20:57:44.902Z,2.67
2022-11-13T21:00:33.219Z,2.55
2022-11-13T21:03:20.144Z,2.70
2022-11-13T21:06:08.041Z,2.88
2022-11-13T21:08:56.302Z,2.50
2022-11-13T21:11:42.894Z,2.25
2022-11-13T21:14:29.869Z,2.50
2022-11-13T21:17:18.213Z,2.60
2022-11-13T21:20:05.130Z,3.17
2022-11-13T21:22:51.785Z,2.80
2022-11-13T21:25:39.005Z,2.70
2022-11-13T21:28:30.600Z,2.95
2022-11-13T21:31:21.412Z,2.38
2022-11-13T21:34:10.424Z,2.65
2022-11-13T21:36:57.317Z,2.50
2022-11-13T21:39:44.605Z,2.50
2022-11-13T21:42:31.500Z,2.20
2022-11-13T21:45:18.484Z,2.20
2022-11-13T21:48:05.891Z,2.30
2022-11-13T21:50:54.266Z,2.38
2022-11-13T21:53:42.814Z,2.40
2022-11-13T21:56:31.560Z,2.42
2022-11-13T21:59:18.533Z,2.30
2022-11-13T22:02:05.686Z,2.30
2022-11-13T22:04:52.646Z,2.05
2022-11-13T22:07:40.672Z,1.95
2022-11-13T22:10:27.649Z,1.90
2022-11-13T22:13:14.649Z,2.15
2022-11-13T22:16:03.709Z,2.08
2022-11-13T22:18:59.289Z,2.00
2022-11-13T22:21:47.304Z,2.13
2022-11-13T22:24:35.544Z,2.00
2022-11-13T22:27:22.549Z,1.80
2022-11-13T22:30:10.531Z,1.90
2022-11-13T22:32:57.498Z,1.85
2022-11-13T22:35:44.487Z,1.92
2022-11-13T22:38:31.848Z,1.90
2022-11-13T22:41:24.007Z,1.90
2022-11-13T22:44:13.809Z,1.65
2022-11-13T22:47:00.605Z,1.75
2022-11-13T22:49:47.353Z,1.90
2022-11-13T22:52:34.367Z,1.88
2022-11-13T22:55:21.356Z,1.70
2022-11-13T22:58:09.449Z,1.90
2022-11-13T23:00:56.646Z,1.80
2022-11-13T23:03:46.436Z,1.80
2022-11-13T23:06:35.781Z,2.15
2022-11-13T23:09:22.701Z,2.65
2022-11-13T23:12:09.684Z,2.20
2022-11-13T23:14:57.997Z,2.45
2022-11-13T23:17:46.163Z,2.20
2022-11-13T23:20:32.947Z,2.15
2022-11-13T23:23:19.885Z,2.30
2022-11-13T23:26:08.598Z,2.53
2022-11-13T23:28:55.555Z,2.50
2022-11-13T23:31:43.713Z,2.50
2022-11-13T23:34:53.382Z,2.50
2022-11-13T23:37:37.877Z,1.98
2022-11-13T23:40:24.685Z,2.42
2022-11-13T23:43:12.006Z,2.00
2022-11-13T23:45:58.661Z,2.22
2022-11-13T23:48:47.008Z,2.50
2022-11-13T23:51:33.887Z,2.33
2022-11-13T23:54:20.775Z,2.15
2022-11-13T23:57:07.688Z,2.40
2022-11-13T23:59:54.604Z,2.03
